sensor_id;sensor_type;location;lat;lon;timestamp;P1;durP1;ratioP1;P2;durP2;ratioP2
8580;SDS011;4328;48.622;9.230;2022-09-12T00:00:33;5.03;;;4.63;;
8580;SDS011;4328;48.622;9.230;2022-09-12T00:02:59;6.17;;;4.70;;
8580;SDS011;4328;48.622;9.230;2022-09-12T00:05:26;5.03;;;4.43;;
8580;SDS011;4328;48.622;9.230;2022-09-12T00:07:53;4.40;;;4.00;;
8580;SDS011;4328;48.622;9.230;2022-09-12T00:10:19;4.90;;;4.40;;
8580;SDS011;4328;48.622;9.230;2022-09-12T00:12:46;4.40;;;4.00;;
8580;SDS011;4328;48.622;9.230;2022-09-12T00:15:13;6.07;;;4.57;;
8580;SDS011;4328;48.622;9.230;2022-09-12T00:17:41;5.90;;;4.27;;
8580;SDS011;4328;48.622;9.230;2022-09-12T00:20:08;5.77;;;4.50;;
8580;SDS011;4328;48.622;9.230;2022-09-12T00:22:36;4.87;;;4.43;;
8580;SDS011;4328;48.622;9.230;2022-09-12T00:25:03;5.07;;;4.60;;
8580;SDS011;4328;48.622;9.230;2022-09-12T00:27:30;4.63;;;4.23;;
8580;SDS011;4328;48.622;9.230;2022-09-12T00:29:57;8.90;;;4.67;;
8580;SDS011;4328;48.622;9.230;2022-09-12T00:32:23;5.00;;;4.47;;
8580;SDS011;4328;48.622;9.230;2022-09-12T00:34:51;8.17;;;4.43;;
8580;SDS011;4328;48.622;9.230;2022-09-12T00:37:18;6.10;;;4.70;;
8580;SDS011;4328;48.622;9.230;2022-09-12T00:39:45;4.60;;;4.20;;
8580;SDS011;4328;48.622;9.230;2022-09-12T00:42:11;4.57;;;4.00;;
8580;SDS011;4328;48.622;9.230;2022-09-12T00:44:41;4.90;;;4.27;;
8580;SDS011;4328;48.622;9.230;2022-09-12T00:47:12;4.27;;;3.87;;
8580;SDS011;4328;48.622;9.230;2022-09-12T00:49:45;4.90;;;4.50;;
8580;SDS011;4328;48.622;9.230;2022-09-12T00:52:18;5.30;;;4.80;;
8580;SDS011;4328;48.622;9.230;2022-09-12T00:54:50;4.27;;;3.93;;
8580;SDS011;4328;48.622;9.230;2022-09-12T00:57:21;5.27;;;4.20;;
8580;SDS011;4328;48.622;9.230;2022-09-12T00:59:51;6.40;;;4.57;;
8580;SDS011;4328;48.622;9.230;2022-09-12T01:02:20;5.00;;;4.60;;
8580;SDS011;4328;48.622;9.230;2022-09-12T01:04:47;6.30;;;4.23;;
8580;SDS011;4328;48.622;9.230;2022-09-12T01:07:14;8.40;;;4.43;;
8580;SDS011;4328;48.622;9.230;2022-09-12T01:09:43;6.20;;;4.40;;
8580;SDS011;4328;48.622;9.230;2022-09-12T01:12:11;5.17;;;4.67;;
8580;SDS011;4328;48.622;9.230;2022-09-12T01:14:40;6.23;;;4.60;;
8580;SDS011;4328;48.622;9.230;2022-09-12T01:17:06;5.57;;;4.20;;
8580;SDS011;4328;48.622;9.230;2022-09-12T01:22:35;5.17;;;4.23;;
8580;SDS011;4328;48.622;9.230;2022-09-12T01:25:22;4.73;;;4.33;;
8580;SDS011;4328;48.622;9.230;2022-09-12T01:28:03;5.37;;;4.30;;
8580;SDS011;4328;48.622;9.230;2022-09-12T01:30:48;5.23;;;4.20;;
8580;SDS011;4328;48.622;9.230;2022-09-12T01:33:27;4.50;;;4.20;;
8580;SDS011;4328;48.622;9.230;2022-09-12T01:36:04;4.50;;;4.20;;
8580;SDS011;4328;48.622;9.230;2022-09-12T01:38:46;10.13;;;4.47;;
8580;SDS011;4328;48.622;9.230;2022-09-12T01:41:17;4.50;;;4.10;;
8580;SDS011;4328;48.622;9.230;2022-09-12T01:43:53;6.53;;;4.40;;
8580;SDS011;4328;48.622;9.230;2022-09-12T01:46:29;4.93;;;4.47;;
8580;SDS011;4328;48.622;9.230;2022-09-12T01:49:01;4.50;;;4.20;;
8580;SDS011;4328;48.622;9.230;2022-09-12T01:51:37;4.97;;;4.50;;
8580;SDS011;4328;48.622;9.230;2022-09-12T01:54:08;5.83;;;4.00;;
8580;SDS011;4328;48.622;9.230;2022-09-12T01:56:38;4.80;;;4.40;;
8580;SDS011;4328;48.622;9.230;2022-09-12T01:59:09;5.53;;;4.20;;
8580;SDS011;4328;48.622;9.230;2022-09-12T02:01:43;5.37;;;4.43;;
8580;SDS011;4328;48.622;9.230;2022-09-12T02:04:16;4.50;;;4.20;;
8580;SDS011;4328;48.622;9.230;2022-09-12T02:06:46;9.03;;;4.63;;
8580;SDS011;4328;48.622;9.230;2022-09-12T02:09:16;5.03;;;4.27;;
8580;SDS011;4328;48.622;9.230;2022-09-12T02:11:48;5.40;;;4.40;;
8580;SDS011;4328;48.622;9.230;2022-09-12T02:14:19;5.17;;;4.63;;
8580;SDS011;4328;48.622;9.230;2022-09-12T02:16:51;7.30;;;4.10;;
8580;SDS011;4328;48.622;9.230;2022-09-12T02:19:22;4.40;;;4.00;;
8580;SDS011;4328;48.622;9.230;2022-09-12T02:21:53;8.33;;;4.60;;
8580;SDS011;4328;48.622;9.230;2022-09-12T02:24:21;5.17;;;4.57;;
8580;SDS011;4328;48.622;9.230;2022-09-12T02:26:54;5.67;;;4.83;;
8580;SDS011;4328;48.622;9.230;2022-09-12T02:29:24;5.30;;;4.70;;
8580;SDS011;4328;48.622;9.230;2022-09-12T02:31:53;4.73;;;4.43;;
8580;SDS011;4328;48.622;9.230;2022-09-12T02:34:26;6.67;;;4.50;;
8580;SDS011;4328;48.622;9.230;2022-09-12T02:37:04;5.17;;;4.70;;
8580;SDS011;4328;48.622;9.230;2022-09-12T02:39:35;5.23;;;4.40;;
8580;SDS011;4328;48.622;9.230;2022-09-12T02:42:02;4.90;;;4.40;;
8580;SDS011;4328;48.622;9.230;2022-09-12T02:44:29;7.60;;;4.57;;
8580;SDS011;4328;48.622;9.230;2022-09-12T02:47:01;5.40;;;4.30;;
8580;SDS011;4328;48.622;9.230;2022-09-12T02:49:31;8.43;;;4.67;;
8580;SDS011;4328;48.622;9.230;2022-09-12T02:51:58;7.23;;;4.47;;
8580;SDS011;4328;48.622;9.230;2022-09-12T02:54:26;4.97;;;4.63;;
8580;SDS011;4328;48.622;9.230;2022-09-12T02:56:54;5.13;;;4.70;;
8580;SDS011;4328;48.622;9.230;2022-09-12T02:59:21;6.80;;;4.80;;
8580;SDS011;4328;48.622;9.230;2022-09-12T03:04:46;5.57;;;4.80;;
8580;SDS011;4328;48.622;9.230;2022-09-12T03:07:25;6.03;;;4.27;;
8580;SDS011;4328;48.622;9.230;2022-09-12T03:10:05;5.37;;;4.87;;
8580;SDS011;4328;48.622;9.230;2022-09-12T03:12:43;5.00;;;4.60;;
8580;SDS011;4328;48.622;9.230;2022-09-12T03:15:21;6.20;;;4.80;;
8580;SDS011;4328;48.622;9.230;2022-09-12T03:18:00;6.63;;;5.20;;
8580;SDS011;4328;48.622;9.230;2022-09-12T03:20:38;5.33;;;4.70;;
8580;SDS011;4328;48.622;9.230;2022-09-12T03:23:12;4.80;;;4.40;;
8580;SDS011;4328;48.622;9.230;2022-09-12T03:25:47;5.13;;;4.60;;
8580;SDS011;4328;48.622;9.230;2022-09-12T03:28:18;5.97;;;5.03;;
8580;SDS011;4328;48.622;9.230;2022-09-12T03:30:47;11.07;;;5.10;;
8580;SDS011;4328;48.622;9.230;2022-09-12T03:33:17;6.03;;;4.43;;
8580;SDS011;4328;48.622;9.230;2022-09-12T03:35:45;8.13;;;4.90;;
8580;SDS011;4328;48.622;9.230;2022-09-12T03:38:13;5.67;;;4.43;;
8580;SDS011;4328;48.622;9.230;2022-09-12T03:40:40;6.00;;;4.60;;
8580;SDS011;4328;48.622;9.230;2022-09-12T03:43:07;9.03;;;5.10;;
8580;SDS011;4328;48.622;9.230;2022-09-12T03:45:35;5.00;;;4.37;;
8580;SDS011;4328;48.622;9.230;2022-09-12T03:48:02;5.50;;;4.80;;
8580;SDS011;4328;48.622;9.230;2022-09-12T03:50:31;5.37;;;4.70;;
8580;SDS011;4328;48.622;9.230;2022-09-12T03:52:57;5.33;;;4.83;;
8580;SDS011;4328;48.622;9.230;2022-09-12T03:55:24;6.50;;;5.07;;
8580;SDS011;4328;48.622;9.230;2022-09-12T03:57:51;4.90;;;4.50;;
8580;SDS011;4328;48.622;9.230;2022-09-12T04:00:18;4.67;;;4.27;;
8580;SDS011;4328;48.622;9.230;2022-09-12T04:02:45;4.93;;;4.57;;
8580;SDS011;4328;48.622;9.230;2022-09-12T04:05:12;6.83;;;4.40;;
8580;SDS011;4328;48.622;9.230;2022-09-12T04:07:40;8.37;;;4.83;;
8580;SDS011;4328;48.622;9.230;2022-09-12T04:10:06;6.00;;;4.60;;
8580;SDS011;4328;48.622;9.230;2022-09-12T04:12:34;6.00;;;4.80;;
8580;SDS011;4328;48.622;9.230;2022-09-12T04:15:00;4.83;;;4.43;;
8580;SDS011;4328;48.622;9.230;2022-09-12T04:17:27;4.67;;;4.27;;
8580;SDS011;4328;48.622;9.230;2022-09-12T04:19:53;5.27;;;4.57;;
8580;SDS011;4328;48.622;9.230;2022-09-12T04:22:20;7.17;;;4.43;;
8580;SDS011;4328;48.622;9.230;2022-09-12T04:24:48;5.20;;;4.60;;
8580;SDS011;4328;48.622;9.230;2022-09-12T04:27:14;5.40;;;4.90;;
8580;SDS011;4328;48.622;9.230;2022-09-12T04:29:41;4.80;;;4.40;;
8580;SDS011;4328;48.622;9.230;2022-09-12T04:32:08;6.60;;;4.90;;
8580;SDS011;4328;48.622;9.230;2022-09-12T04:34:34;4.63;;;4.23;;
8580;SDS011;4328;48.622;9.230;2022-09-12T04:37:01;5.97;;;4.70;;
8580;SDS011;4328;48.622;9.230;2022-09-12T04:39:28;4.80;;;4.40;;
8580;SDS011;4328;48.622;9.230;2022-09-12T04:41:56;4.57;;;4.17;;
8580;SDS011;4328;48.622;9.230;2022-09-12T04:44:22;8.70;;;4.53;;
8580;SDS011;4328;48.622;9.230;2022-09-12T04:46:49;5.53;;;4.33;;
8580;SDS011;4328;48.622;9.230;2022-09-12T04:49:16;7.10;;;4.80;;
8580;SDS011;4328;48.622;9.230;2022-09-12T04:51:43;6.13;;;4.47;;
8580;SDS011;4328;48.622;9.230;2022-09-12T04:54:11;4.77;;;4.37;;
8580;SDS011;4328;48.622;9.230;2022-09-12T04:56:40;4.53;;;4.13;;
8580;SDS011;4328;48.622;9.230;2022-09-12T04:59:10;6.93;;;4.70;;
8580;SDS011;4328;48.622;9.230;2022-09-12T05:01:38;5.27;;;4.23;;
8580;SDS011;4328;48.622;9.230;2022-09-12T05:04:05;4.80;;;4.43;;
8580;SDS011;4328;48.622;9.230;2022-09-12T05:06:33;4.60;;;4.20;;
8580;SDS011;4328;48.622;9.230;2022-09-12T05:09:02;6.30;;;5.20;;
8580;SDS011;4328;48.622;9.230;2022-09-12T05:11:31;5.07;;;4.70;;
8580;SDS011;4328;48.622;9.230;2022-09-12T05:13:58;5.33;;;4.93;;
8580;SDS011;4328;48.622;9.230;2022-09-12T05:16:27;8.67;;;4.40;;
8580;SDS011;4328;48.622;9.230;2022-09-12T05:18:55;5.67;;;5.10;;
8580;SDS011;4328;48.622;9.230;2022-09-12T05:21:22;5.10;;;4.67;;
8580;SDS011;4328;48.622;9.230;2022-09-12T05:23:50;5.10;;;4.70;;
8580;SDS011;4328;48.622;9.230;2022-09-12T05:26:17;5.33;;;4.87;;
8580;SDS011;4328;48.622;9.230;2022-09-12T05:28:45;5.83;;;4.90;;
8580;SDS011;4328;48.622;9.230;2022-09-12T05:31:14;6.70;;;4.80;;
8580;SDS011;4328;48.622;9.230;2022-09-12T05:33:45;4.73;;;4.23;;
8580;SDS011;4328;48.622;9.230;2022-09-12T05:36:14;5.40;;;4.67;;
8580;SDS011;4328;48.622;9.230;2022-09-12T05:38:42;4.90;;;4.57;;
8580;SDS011;4328;48.622;9.230;2022-09-12T05:41:10;4.63;;;4.33;;
8580;SDS011;4328;48.622;9.230;2022-09-12T05:43:37;5.57;;;4.73;;
8580;SDS011;4328;48.622;9.230;2022-09-12T05:46:06;5.23;;;4.70;;
8580;SDS011;4328;48.622;9.230;2022-09-12T05:48:34;6.43;;;4.37;;
8580;SDS011;4328;48.622;9.230;2022-09-12T05:51:04;4.53;;;4.23;;
8580;SDS011;4328;48.622;9.230;2022-09-12T05:53:34;5.53;;;4.37;;
8580;SDS011;4328;48.622;9.230;2022-09-12T05:56:05;4.40;;;4.03;;
8580;SDS011;4328;48.622;9.230;2022-09-12T05:58:33;4.83;;;4.23;;
8580;SDS011;4328;48.622;9.230;2022-09-12T06:01:01;6.47;;;4.40;;
8580;SDS011;4328;48.622;9.230;2022-09-12T06:03:31;4.80;;;4.50;;
8580;SDS011;4328;48.622;9.230;2022-09-12T06:06:00;5.10;;;4.60;;
8580;SDS011;4328;48.622;9.230;2022-09-12T06:08:29;4.70;;;4.30;;
8580;SDS011;4328;48.622;9.230;2022-09-12T06:10:59;5.00;;;4.40;;
8580;SDS011;4328;48.622;9.230;2022-09-12T06:13:27;4.93;;;4.43;;
8580;SDS011;4328;48.622;9.230;2022-09-12T06:16:00;6.80;;;4.60;;
8580;SDS011;4328;48.622;9.230;2022-09-12T06:18:28;7.50;;;5.40;;
8580;SDS011;4328;48.622;9.230;2022-09-12T06:20:54;7.43;;;4.97;;
8580;SDS011;4328;48.622;9.230;2022-09-12T06:23:23;7.97;;;5.73;;
8580;SDS011;4328;48.622;9.230;2022-09-12T06:25:50;8.83;;;5.07;;
8580;SDS011;4328;48.622;9.230;2022-09-12T06:28:17;5.03;;;4.40;;
8580;SDS011;4328;48.622;9.230;2022-09-12T06:30:44;4.43;;;4.07;;
8580;SDS011;4328;48.622;9.230;2022-09-12T06:33:10;4.30;;;4.00;;
8580;SDS011;4328;48.622;9.230;2022-09-12T06:35:37;4.13;;;3.83;;
8580;SDS011;4328;48.622;9.230;2022-09-12T06:38:04;5.67;;;3.30;;
8580;SDS011;4328;48.622;9.230;2022-09-12T06:40:32;4.70;;;2.97;;
8580;SDS011;4328;48.622;9.230;2022-09-12T06:42:58;3.83;;;3.17;;
8580;SDS011;4328;48.622;9.230;2022-09-12T06:45:25;3.00;;;2.80;;
8580;SDS011;4328;48.622;9.230;2022-09-12T06:47:53;2.73;;;2.63;;
8580;SDS011;4328;48.622;9.230;2022-09-12T06:50:20;2.93;;;2.73;;
8580;SDS011;4328;48.622;9.230;2022-09-12T06:52:47;2.73;;;2.53;;
8580;SDS011;4328;48.622;9.230;2022-09-12T06:55:15;2.47;;;2.33;;
8580;SDS011;4328;48.622;9.230;2022-09-12T06:57:43;2.92;;;2.63;;
8580;SDS011;4328;48.622;9.230;2022-09-12T07:00:10;2.85;;;2.65;;
8580;SDS011;4328;48.622;9.230;2022-09-12T07:02:37;2.35;;;2.25;;
8580;SDS011;4328;48.622;9.230;2022-09-12T07:05:04;2.40;;;2.20;;
8580;SDS011;4328;48.622;9.230;2022-09-12T07:07:32;2.40;;;2.20;;
8580;SDS011;4328;48.622;9.230;2022-09-12T07:09:59;2.40;;;2.20;;
8580;SDS011;4328;48.622;9.230;2022-09-12T07:12:26;2.85;;;2.35;;
8580;SDS011;4328;48.622;9.230;2022-09-12T07:14:55;2.35;;;2.25;;
8580;SDS011;4328;48.622;9.230;2022-09-12T07:17:21;3.60;;;2.55;;
8580;SDS011;4328;48.622;9.230;2022-09-12T07:19:48;2.42;;;2.33;;
8580;SDS011;4328;48.622;9.230;2022-09-12T07:22:15;2.47;;;2.28;;
8580;SDS011;4328;48.622;9.230;2022-09-12T07:24:41;2.25;;;2.15;;
8580;SDS011;4328;48.622;9.230;2022-09-12T07:27:09;2.08;;;1.98;;
8580;SDS011;4328;48.622;9.230;2022-09-12T07:29:36;2.60;;;2.30;;
8580;SDS011;4328;48.622;9.230;2022-09-12T07:32:04;2.60;;;2.40;;
8580;SDS011;4328;48.622;9.230;2022-09-12T07:34:32;2.35;;;2.25;;
8580;SDS011;4328;48.622;9.230;2022-09-12T07:36:59;2.35;;;2.25;;
8580;SDS011;4328;48.622;9.230;2022-09-12T07:39:26;2.65;;;2.45;;
8580;SDS011;4328;48.622;9.230;2022-09-12T07:41:52;2.65;;;2.45;;
8580;SDS011;4328;48.622;9.230;2022-09-12T07:44:19;2.53;;;2.42;;
8580;SDS011;4328;48.622;9.230;2022-09-12T07:46:46;2.90;;;2.45;;
8580;SDS011;4328;48.622;9.230;2022-09-12T07:49:15;3.47;;;2.90;;
8580;SDS011;4328;48.622;9.230;2022-09-12T07:51:42;4.10;;;3.05;;
8580;SDS011;4328;48.622;9.230;2022-09-12T07:54:09;2.92;;;2.72;;
8580;SDS011;4328;48.622;9.230;2022-09-12T07:56:36;2.72;;;2.63;;
8580;SDS011;4328;48.622;9.230;2022-09-12T07:59:02;2.95;;;2.67;;
8580;SDS011;4328;48.622;9.230;2022-09-12T08:01:29;2.80;;;2.70;;
8580;SDS011;4328;48.622;9.230;2022-09-12T08:03:56;3.75;;;3.40;;
8580;SDS011;4328;48.622;9.230;2022-09-12T08:06:26;3.10;;;3.00;;
8580;SDS011;4328;48.622;9.230;2022-09-12T08:08:56;3.30;;;3.10;;
8580;SDS011;4328;48.622;9.230;2022-09-12T08:11:24;3.25;;;3.05;;
8580;SDS011;4328;48.622;9.230;2022-09-12T08:13:53;3.95;;;3.60;;
8580;SDS011;4328;48.622;9.230;2022-09-12T08:16:21;3.50;;;3.30;;
8580;SDS011;4328;48.622;9.230;2022-09-12T08:18:49;3.40;;;3.20;;
8580;SDS011;4328;48.622;9.230;2022-09-12T08:21:17;3.42;;;3.22;;
8580;SDS011;4328;48.622;9.230;2022-09-12T08:23:46;3.28;;;3.08;;
8580;SDS011;4328;48.622;9.230;2022-09-12T08:26:16;3.38;;;3.17;;
8580;SDS011;4328;48.622;9.230;2022-09-12T08:28:43;3.67;;;3.47;;
8580;SDS011;4328;48.622;9.230;2022-09-12T08:31:12;3.40;;;3.20;;
8580;SDS011;4328;48.622;9.230;2022-09-12T08:33:40;3.60;;;3.40;;
8580;SDS011;4328;48.622;9.230;2022-09-12T08:36:08;3.42;;;3.13;;
8580;SDS011;4328;48.622;9.230;2022-09-12T08:38:37;2.90;;;2.80;;
8580;SDS011;4328;48.622;9.230;2022-09-12T08:41:08;3.60;;;3.40;;
8580;SDS011;4328;48.622;9.230;2022-09-12T08:43:50;3.30;;;3.10;;
8580;SDS011;4328;48.622;9.230;2022-09-12T08:46:31;3.55;;;3.35;;
8580;SDS011;4328;48.622;9.230;2022-09-12T08:49:03;3.55;;;3.35;;
8580;SDS011;4328;48.622;9.230;2022-09-12T08:51:35;3.55;;;3.33;;
8580;SDS011;4328;48.622;9.230;2022-09-12T08:54:04;3.60;;;3.30;;
8580;SDS011;4328;48.622;9.230;2022-09-12T08:56:45;3.22;;;3.05;;
8580;SDS011;4328;48.622;9.230;2022-09-12T08:59:13;3.67;;;3.47;;
8580;SDS011;4328;48.622;9.230;2022-09-12T09:01:41;3.38;;;3.17;;
8580;SDS011;4328;48.622;9.230;2022-09-12T09:04:18;3.55;;;3.35;;
8580;SDS011;4328;48.622;9.230;2022-09-12T09:07:13;4.28;;;3.40;;
8580;SDS011;4328;48.622;9.230;2022-09-12T09:10:00;3.65;;;3.40;;
8580;SDS011;4328;48.622;9.230;2022-09-12T09:12:37;3.80;;;3.50;;
8580;SDS011;4328;48.622;9.230;2022-09-12T09:15:16;3.20;;;3.00;;
8580;SDS011;4328;48.622;9.230;2022-09-12T09:17:52;3.15;;;2.97;;
8580;SDS011;4328;48.622;9.230;2022-09-12T09:20:22;3.17;;;2.97;;
8580;SDS011;4328;48.622;9.230;2022-09-12T09:22:55;3.47;;;3.28;;
8580;SDS011;4328;48.622;9.230;2022-09-12T09:25:29;2.90;;;2.70;;
8580;SDS011;4328;48.622;9.230;2022-09-12T09:28:05;2.35;;;2.15;;
8580;SDS011;4328;48.622;9.230;2022-09-12T09:30:44;2.50;;;2.40;;
8580;SDS011;4328;48.622;9.230;2022-09-12T09:33:14;2.22;;;1.98;;
8580;SDS011;4328;48.622;9.230;2022-09-12T09:35:46;2.10;;;2.00;;
8580;SDS011;4328;48.622;9.230;2022-09-12T09:38:23;2.25;;;2.05;;
8580;SDS011;4328;48.622;9.230;2022-09-12T09:41:03;2.13;;;1.95;;
8580;SDS011;4328;48.622;9.230;2022-09-12T09:43:42;1.90;;;1.80;;
8580;SDS011;4328;48.622;9.230;2022-09-12T09:46:09;1.75;;;1.60;;
8580;SDS011;4328;48.622;9.230;2022-09-12T09:48:39;2.05;;;1.92;;
8580;SDS011;4328;48.622;9.230;2022-09-12T09:51:09;2.25;;;2.05;;
8580;SDS011;4328;48.622;9.230;2022-09-12T09:53:39;2.08;;;1.98;;
8580;SDS011;4328;48.622;9.230;2022-09-12T09:56:11;2.72;;;1.77;;
8580;SDS011;4328;48.622;9.230;2022-09-12T09:58:51;1.85;;;1.75;;
8580;SDS011;4328;48.622;9.230;2022-09-12T10:01:17;1.80;;;1.70;;
8580;SDS011;4328;48.622;9.230;2022-09-12T10:03:48;1.95;;;1.75;;
8580;SDS011;4328;48.622;9.230;2022-09-12T10:06:24;2.28;;;1.40;;
8580;SDS011;4328;48.622;9.230;2022-09-12T10:09:03;1.75;;;1.65;;
8580;SDS011;4328;48.622;9.230;2022-09-12T10:11:33;2.00;;;1.90;;
8580;SDS011;4328;48.622;9.230;2022-09-12T10:14:01;1.70;;;1.60;;
8580;SDS011;4328;48.622;9.230;2022-09-12T10:16:29;1.75;;;1.65;;
8580;SDS011;4328;48.622;9.230;2022-09-12T10:18:57;1.90;;;1.80;;
8580;SDS011;4328;48.622;9.230;2022-09-12T10:21:29;1.80;;;1.70;;
8580;SDS011;4328;48.622;9.230;2022-09-12T10:24:03;1.83;;;1.65;;
8580;SDS011;4328;48.622;9.230;2022-09-12T10:26:37;1.98;;;1.60;;
8580;SDS011;4328;48.622;9.230;2022-09-12T10:29:10;1.90;;;1.80;;
8580;SDS011;4328;48.622;9.230;2022-09-12T10:31:41;1.60;;;1.55;;
8580;SDS011;4328;48.622;9.230;2022-09-12T10:34:22;1.77;;;1.67;;
8580;SDS011;4328;48.622;9.230;2022-09-12T10:37:00;1.65;;;1.55;;
8580;SDS011;4328;48.622;9.230;2022-09-12T10:39:30;2.47;;;1.70;;
8580;SDS011;4328;48.622;9.230;2022-09-12T10:41:58;1.52;;;1.52;;
8580;SDS011;4328;48.622;9.230;2022-09-12T10:44:27;1.95;;;1.80;;
8580;SDS011;4328;48.622;9.230;2022-09-12T10:46:56;1.67;;;1.60;;
8580;SDS011;4328;48.622;9.230;2022-09-12T10:49:25;1.58;;;1.48;;
8580;SDS011;4328;48.622;9.230;2022-09-12T10:51:53;1.60;;;1.50;;
8580;SDS011;4328;48.622;9.230;2022-09-12T10:54:24;1.85;;;1.60;;
8580;SDS011;4328;48.622;9.230;2022-09-12T10:57:11;1.70;;;1.60;;
8580;SDS011;4328;48.622;9.230;2022-09-12T11:00:00;2.85;;;1.60;;
8580;SDS011;4328;48.622;9.230;2022-09-12T11:02:37;1.60;;;1.50;;
8580;SDS011;4328;48.622;9.230;2022-09-12T11:05:13;1.45;;;1.42;;
8580;SDS011;4328;48.622;9.230;2022-09-12T11:07:56;1.70;;;1.60;;
8580;SDS011;4328;48.622;9.230;2022-09-12T11:10:36;1.30;;;1.30;;
8580;SDS011;4328;48.622;9.230;2022-09-12T11:13:15;1.67;;;1.50;;
8580;SDS011;4328;48.622;9.230;2022-09-12T11:15:55;1.58;;;1.48;;
8580;SDS011;4328;48.622;9.230;2022-09-12T11:18:34;1.80;;;1.70;;
8580;SDS011;4328;48.622;9.230;2022-09-12T11:21:18;1.70;;;1.60;;
8580;SDS011;4328;48.622;9.230;2022-09-12T11:23:57;1.88;;;1.55;;
8580;SDS011;4328;48.622;9.230;2022-09-12T11:26:40;1.60;;;1.50;;
8580;SDS011;4328;48.622;9.230;2022-09-12T11:29:16;1.33;;;1.33;;
8580;SDS011;4328;48.622;9.230;2022-09-12T11:32:01;1.38;;;1.27;;
8580;SDS011;4328;48.622;9.230;2022-09-12T11:34:43;1.80;;;1.70;;
8580;SDS011;4328;48.622;9.230;2022-09-12T11:37:26;2.20;;;1.50;;
8580;SDS011;4328;48.622;9.230;2022-09-12T11:40:17;1.50;;;1.40;;
8580;SDS011;4328;48.622;9.230;2022-09-12T11:42:52;1.80;;;1.50;;
8580;SDS011;4328;48.622;9.230;2022-09-12T11:45:24;1.55;;;1.45;;
8580;SDS011;4328;48.622;9.230;2022-09-12T11:47:56;1.33;;;1.25;;
8580;SDS011;4328;48.622;9.230;2022-09-12T11:50:28;1.50;;;1.40;;
8580;SDS011;4328;48.622;9.230;2022-09-12T11:52:57;1.48;;;1.33;;
8580;SDS011;4328;48.622;9.230;2022-09-12T11:55:31;1.42;;;1.38;;
8580;SDS011;4328;48.622;9.230;2022-09-12T11:58:12;1.40;;;1.20;;
8580;SDS011;4328;48.622;9.230;2022-09-12T12:00:42;1.05;;;1.05;;
8580;SDS011;4328;48.622;9.230;2022-09-12T12:03:14;1.23;;;1.23;;
8580;SDS011;4328;48.622;9.230;2022-09-12T12:05:48;1.02;;;1.02;;
8580;SDS011;4328;48.622;9.230;2022-09-12T12:08:19;1.10;;;1.10;;
8580;SDS011;4328;48.622;9.230;2022-09-12T12:10:48;1.00;;;1.00;;
8580;SDS011;4328;48.622;9.230;2022-09-12T12:13:18;0.80;;;0.80;;
8580;SDS011;4328;48.622;9.230;2022-09-12T12:15:51;2.00;;;0.83;;
8580;SDS011;4328;48.622;9.230;2022-09-12T12:18:23;0.93;;;0.93;;
8580;SDS011;4328;48.622;9.230;2022-09-12T12:20:52;0.90;;;0.90;;
8580;SDS011;4328;48.622;9.230;2022-09-12T12:23:24;0.93;;;0.93;;
8580;SDS011;4328;48.622;9.230;2022-09-12T12:25:54;1.38;;;1.10;;
8580;SDS011;4328;48.622;9.230;2022-09-12T12:31:26;1.17;;;1.17;;
8580;SDS011;4328;48.622;9.230;2022-09-12T12:33:59;0.90;;;0.90;;
8580;SDS011;4328;48.622;9.230;2022-09-12T12:36:32;1.88;;;1.20;;
8580;SDS011;4328;48.622;9.230;2022-09-12T12:51:29;1.35;;;1.30;;
8580;SDS011;4328;48.622;9.230;2022-09-12T12:54:01;1.10;;;1.10;;
8580;SDS011;4328;48.622;9.230;2022-09-12T12:56:34;1.20;;;1.20;;
8580;SDS011;4328;48.622;9.230;2022-09-12T12:59:15;1.27;;;1.20;;
8580;SDS011;4328;48.622;9.230;2022-09-12T13:01:45;1.80;;;1.30;;
8580;SDS011;4328;48.622;9.230;2022-09-12T13:04:16;1.42;;;1.33;;
8580;SDS011;4328;48.622;9.230;2022-09-12T13:06:45;1.52;;;1.40;;
8580;SDS011;4328;48.622;9.230;2022-09-12T13:09:21;1.65;;;1.35;;
8580;SDS011;4328;48.622;9.230;2022-09-12T13:11:56;1.57;;;1.47;;
8580;SDS011;4328;48.622;9.230;2022-09-12T13:14:33;1.17;;;1.10;;
8580;SDS011;4328;48.622;9.230;2022-09-12T13:17:03;2.33;;;1.40;;
8580;SDS011;4328;48.622;9.230;2022-09-12T13:19:35;1.80;;;1.70;;
8580;SDS011;4328;48.622;9.230;2022-09-12T13:22:03;3.38;;;3.08;;
8580;SDS011;4328;48.622;9.230;2022-09-12T13:24:31;2.90;;;2.70;;
8580;SDS011;4328;48.622;9.230;2022-09-12T13:26:58;2.50;;;1.40;;
8580;SDS011;4328;48.622;9.230;2022-09-12T13:29:26;1.50;;;1.40;;
8580;SDS011;4328;48.622;9.230;2022-09-12T13:31:53;1.17;;;1.17;;
8580;SDS011;4328;48.622;9.230;2022-09-12T13:34:23;1.70;;;1.60;;
8580;SDS011;4328;48.622;9.230;2022-09-12T13:39:46;1.20;;;1.20;;
8580;SDS011;4328;48.622;9.230;2022-09-12T13:42:27;1.47;;;1.37;;
8580;SDS011;4328;48.622;9.230;2022-09-12T13:45:10;1.37;;;1.30;;
8580;SDS011;4328;48.622;9.230;2022-09-12T13:47:40;1.20;;;1.10;;
8580;SDS011;4328;48.622;9.230;2022-09-12T13:50:11;1.50;;;1.40;;
8580;SDS011;4328;48.622;9.230;2022-09-12T13:52:44;1.40;;;1.30;;
8580;SDS011;4328;48.622;9.230;2022-09-12T13:55:19;1.30;;;1.20;;
8580;SDS011;4328;48.622;9.230;2022-09-12T13:57:56;1.37;;;1.37;;
8580;SDS011;4328;48.622;9.230;2022-09-12T14:00:25;1.60;;;1.30;;
8580;SDS011;4328;48.622;9.230;2022-09-12T14:02:52;1.10;;;1.10;;
8580;SDS011;4328;48.622;9.230;2022-09-12T14:05:39;1.27;;;1.27;;
8580;SDS011;4328;48.622;9.230;2022-09-12T14:08:10;1.20;;;1.20;;
8580;SDS011;4328;48.622;9.230;2022-09-12T14:10:40;1.53;;;1.43;;
8580;SDS011;4328;48.622;9.230;2022-09-12T14:13:09;2.07;;;1.40;;
8580;SDS011;4328;48.622;9.230;2022-09-12T14:15:38;2.17;;;1.27;;
8580;SDS011;4328;48.622;9.230;2022-09-12T14:18:18;1.13;;;1.13;;
8580;SDS011;4328;48.622;9.230;2022-09-12T14:20:47;1.23;;;1.23;;
8580;SDS011;4328;48.622;9.230;2022-09-12T14:23:18;1.30;;;1.30;;
8580;SDS011;4328;48.622;9.230;2022-09-12T14:25:50;1.93;;;1.27;;
8580;SDS011;4328;48.622;9.230;2022-09-12T14:28:18;1.20;;;1.20;;
8580;SDS011;4328;48.622;9.230;2022-09-12T14:30:56;1.50;;;1.20;;
8580;SDS011;4328;48.622;9.230;2022-09-12T14:33:24;1.53;;;1.43;;
8580;SDS011;4328;48.622;9.230;2022-09-12T14:35:51;1.17;;;1.10;;
8580;SDS011;4328;48.622;9.230;2022-09-12T14:38:35;1.98;;;1.20;;
8580;SDS011;4328;48.622;9.230;2022-09-12T14:41:06;2.10;;;1.10;;
8580;SDS011;4328;48.622;9.230;2022-09-12T14:43:35;1.10;;;1.00;;
8580;SDS011;4328;48.622;9.230;2022-09-12T14:46:04;1.43;;;1.33;;
8580;SDS011;4328;48.622;9.230;2022-09-12T14:48:34;1.00;;;1.00;;
8580;SDS011;4328;48.622;9.230;2022-09-12T14:51:02;1.00;;;1.00;;
8580;SDS011;4328;48.622;9.230;2022-09-12T14:53:31;1.10;;;1.10;;
8580;SDS011;4328;48.622;9.230;2022-09-12T14:56:06;1.20;;;1.20;;
8580;SDS011;4328;48.622;9.230;2022-09-12T14:58:34;1.00;;;1.00;;
8580;SDS011;4328;48.622;9.230;2022-09-12T15:01:02;1.20;;;1.10;;
8580;SDS011;4328;48.622;9.230;2022-09-12T15:03:49;1.00;;;1.00;;
8580;SDS011;4328;48.622;9.230;2022-09-12T15:06:19;1.00;;;1.00;;
8580;SDS011;4328;48.622;9.230;2022-09-12T15:08:48;0.97;;;0.97;;
8580;SDS011;4328;48.622;9.230;2022-09-12T15:11:16;1.30;;;1.10;;
8580;SDS011;4328;48.622;9.230;2022-09-12T15:13:42;2.00;;;0.93;;
8580;SDS011;4328;48.622;9.230;2022-09-12T15:16:10;1.00;;;1.00;;
8580;SDS011;4328;48.622;9.230;2022-09-12T15:18:37;1.00;;;1.00;;
8580;SDS011;4328;48.622;9.230;2022-09-12T15:21:04;1.67;;;1.10;;
8580;SDS011;4328;48.622;9.230;2022-09-12T15:23:33;1.07;;;1.00;;
8580;SDS011;4328;48.622;9.230;2022-09-12T15:26:04;1.00;;;1.00;;
8580;SDS011;4328;48.622;9.230;2022-09-12T15:28:33;1.23;;;1.00;;
8580;SDS011;4328;48.622;9.230;2022-09-12T15:31:02;1.13;;;1.00;;
8580;SDS011;4328;48.622;9.230;2022-09-12T15:33:32;1.07;;;1.07;;
8580;SDS011;4328;48.622;9.230;2022-09-12T15:35:58;1.73;;;0.80;;
8580;SDS011;4328;48.622;9.230;2022-09-12T15:38:26;1.00;;;1.00;;
8580;SDS011;4328;48.622;9.230;2022-09-12T15:40:52;1.27;;;1.10;;
8580;SDS011;4328;48.622;9.230;2022-09-12T15:43:20;1.03;;;0.93;;
8580;SDS011;4328;48.622;9.230;2022-09-12T15:45:48;1.00;;;1.00;;
8580;SDS011;4328;48.622;9.230;2022-09-12T15:48:16;1.30;;;1.30;;
8580;SDS011;4328;48.622;9.230;2022-09-12T15:50:43;1.43;;;1.10;;
8580;SDS011;4328;48.622;9.230;2022-09-12T15:53:12;1.70;;;1.13;;
8580;SDS011;4328;48.622;9.230;2022-09-12T15:55:40;1.13;;;1.00;;
8580;SDS011;4328;48.622;9.230;2022-09-12T15:58:06;1.00;;;1.00;;
8580;SDS011;4328;48.622;9.230;2022-09-12T16:00:33;2.13;;;1.10;;